createdAt,value
2024-02-22T00:06:34.000Z,975.37
2024-02-22T00:21:11.000Z,975.00
2024-02-22T00:35:50.000Z,974.82
2024-02-22T00:50:28.000Z,974.70
2024-02-22T01:05:06.000Z,974.38
2024-02-22T01:19:44.000Z,974.19
2024-02-22T01:34:22.000Z,973.94
2024-02-22T01:49:00.000Z,973.58
2024-02-22T02:03:37.000Z,973.34
2024-02-22T02:18:13.000Z,973.06
2024-02-22T02:32:50.000Z,972.75
2024-02-22T02:47:28.000Z,972.57
2024-02-22T03:02:06.000Z,972.33
2024-02-22T03:16:44.000Z,972.16
2024-02-22T03:31:22.000Z,972.04
2024-02-22T03:46:00.000Z,971.91
2024-02-22T04:00:37.000Z,971.61
2024-02-22T04:15:14.000Z,971.43
2024-02-22T04:29:52.000Z,971.18
2024-02-22T04:44:30.000Z,971.06
2024-02-22T04:59:08.000Z,971.04
2024-02-22T05:13:47.000Z,970.76
2024-02-22T05:28:24.000Z,970.62
2024-02-22T05:43:02.000Z,970.41
2024-02-22T05:57:40.000Z,970.12
2024-02-22T06:12:17.000Z,969.93
2024-02-22T06:26:53.000Z,969.88
2024-02-22T06:41:30.000Z,969.54
2024-02-22T06:56:08.000Z,969.29
2024-02-22T07:10:46.000Z,968.96
2024-02-22T07:25:23.000Z,969.15
2024-02-22T07:40:01.000Z,968.63
2024-02-22T07:54:39.000Z,968.51
2024-02-22T08:09:17.000Z,968.21
2024-02-22T08:23:54.000Z,968.04
2024-02-22T08:38:32.000Z,967.75
2024-02-22T08:53:10.000Z,967.27
2024-02-22T09:07:49.000Z,967.11
2024-02-22T09:22:28.000Z,966.87
2024-02-22T09:37:06.000Z,966.69
2024-02-22T09:51:45.000Z,966.31
2024-02-22T10:06:22.000Z,966.03
2024-02-22T10:20:58.000Z,965.67
2024-02-22T10:35:34.000Z,965.42
2024-02-22T10:50:12.000Z,965.40
2024-02-22T11:04:51.000Z,965.01
2024-02-22T11:19:26.000Z,964.61
2024-02-22T11:34:04.000Z,964.04
2024-02-22T11:48:42.000Z,963.57
2024-02-22T12:03:19.000Z,963.29
2024-02-22T12:17:57.000Z,963.36
2024-02-22T12:32:31.000Z,962.94
2024-02-22T12:47:09.000Z,962.52
2024-02-22T13:01:46.000Z,961.92
2024-02-22T13:16:24.000Z,961.43
2024-02-22T13:31:02.000Z,960.97
2024-02-22T13:45:39.000Z,960.63
2024-02-22T14:00:16.000Z,960.51
2024-02-22T14:14:54.000Z,960.70
2024-02-22T14:44:08.000Z,959.53
2024-02-22T14:58:46.000Z,959.18
2024-02-22T15:13:20.000Z,958.63
2024-02-22T15:27:56.000Z,958.09
2024-02-22T15:42:35.000Z,958.06
2024-02-22T15:57:12.000Z,957.95
2024-02-22T16:11:48.000Z,957.89
2024-02-22T16:26:26.000Z,956.16
2024-02-22T16:41:03.000Z,957.30
2024-02-22T16:55:41.000Z,956.89
2024-02-22T17:10:20.000Z,956.93
2024-02-22T17:24:58.000Z,956.64
2024-02-22T17:39:31.000Z,956.69
2024-02-22T17:54:10.000Z,956.67
2024-02-22T18:08:45.000Z,955.81
2024-02-22T18:23:19.000Z,955.76
2024-02-22T18:37:56.000Z,956.22
2024-02-22T18:52:34.000Z,955.90
2024-02-22T19:07:11.000Z,955.56
2024-02-22T19:21:49.000Z,955.93
2024-02-22T19:36:26.000Z,955.57
2024-02-22T19:50:59.000Z,955.98
2024-02-22T20:05:34.000Z,957.11
2024-02-22T20:20:10.000Z,957.56
2024-02-22T20:34:47.000Z,957.74
2024-02-22T20:49:25.000Z,958.24
2024-02-22T21:04:02.000Z,958.56
2024-02-22T21:18:40.000Z,959.07
2024-02-22T21:33:17.000Z,959.32
2024-02-22T21:47:46.000Z,959.58
2024-02-22T22:02:22.000Z,959.88
2024-02-22T22:16:59.000Z,959.99
2024-02-22T22:31:33.000Z,960.16
2024-02-22T22:46:08.000Z,960.64
2024-02-22T23:00:45.000Z,961.16
2024-02-22T23:15:22.000Z,961.47
2024-02-22T23:30:00.000Z,961.85
2024-02-22T23:44:37.000Z,962.19
2024-02-22T23:59:14.000Z,962.63
